createdAt,value
2023-05-11T00:00:13.371Z,10.716553
2023-05-11T00:01:23.106Z,10.787048
2023-05-11T00:02:32.831Z,10.666199
2023-05-11T00:03:42.564Z,10.716553
2023-05-11T00:04:52.198Z,10.917969
2023-05-11T00:06:01.951Z,10.736694
2023-05-11T00:07:11.659Z,10.746765
2023-05-11T00:08:21.322Z,10.746765
2023-05-11T00:09:31.013Z,10.897827
2023-05-11T00:10:39.756Z,11.038818
2023-05-11T00:11:49.477Z,10.887756
2023-05-11T00:12:59.147Z,10.716553
2023-05-11T00:14:08.864Z,10.625916
2023-05-11T00:15:18.605Z,10.67627
2023-05-11T00:16:28.333Z,10.716553
2023-05-11T00:17:38.067Z,10.666199
2023-05-11T00:18:47.836Z,10.746765
2023-05-11T00:19:57.453Z,10.716553
2023-05-11T00:21:07.143Z,10.716553
2023-05-11T00:22:16.855Z,10.625916
2023-05-11T00:23:26.532Z,10.605774
2023-05-11T00:24:36.308Z,10.716553
2023-05-11T00:25:45.996Z,10.68634
2023-05-11T00:26:55.705Z,10.756836
2023-05-11T00:28:04.377Z,10.988464
2023-05-11T00:29:13.110Z,10.93811
2023-05-11T00:30:22.840Z,10.80719
2023-05-11T00:31:32.533Z,10.837402
2023-05-11T00:32:42.249Z,10.968323
2023-05-11T00:33:52.003Z,10.887756
2023-05-11T00:35:01.689Z,10.857544
2023-05-11T00:36:11.402Z,10.716553
2023-05-11T00:37:21.094Z,10.706482
2023-05-11T00:38:30.831Z,10.756836
2023-05-11T00:39:40.711Z,10.635986
2023-05-11T00:40:50.249Z,10.605774
2023-05-11T00:41:59.975Z,10.585632
2023-05-11T00:43:09.799Z,10.67627
2023-05-11T00:44:19.473Z,10.716553
2023-05-11T00:45:29.196Z,10.817261
2023-05-11T00:46:38.984Z,10.857544
2023-05-11T00:47:47.731Z,10.80719
2023-05-11T00:48:57.396Z,10.787048
2023-05-11T00:50:07.090Z,10.68634
2023-05-11T00:51:16.766Z,10.666199
2023-05-11T00:52:25.514Z,10.666199
2023-05-11T00:53:34.242Z,10.746765
2023-05-11T00:54:43.961Z,10.746765
2023-05-11T00:55:53.669Z,10.736694
2023-05-11T00:57:03.479Z,10.68634
2023-05-11T00:58:13.144Z,10.736694
2023-05-11T00:59:22.876Z,10.756836
2023-05-11T01:00:32.593Z,10.776978
2023-05-11T01:01:42.408Z,10.756836
2023-05-11T01:02:52.115Z,10.666199
2023-05-11T01:04:01.755Z,10.635986
2023-05-11T01:05:11.471Z,10.525208
2023-05-11T01:06:21.273Z,10.585632
2023-05-11T01:07:30.940Z,10.67627
2023-05-11T01:08:40.612Z,10.67627
2023-05-11T01:09:50.452Z,10.736694
2023-05-11T01:11:00.259Z,10.635986
2023-05-11T01:12:09.928Z,10.706482
2023-05-11T01:13:19.608Z,10.756836
2023-05-11T01:14:28.316Z,10.867615
2023-05-11T01:15:38.051Z,10.756836
2023-05-11T01:16:45.764Z,10.706482
2023-05-11T01:17:54.482Z,10.585632
2023-05-11T01:19:04.289Z,10.67627
2023-05-11T01:20:12.948Z,10.635986
2023-05-11T01:21:22.613Z,10.706482
2023-05-11T01:22:32.307Z,10.776978
2023-05-11T01:23:41.013Z,10.80719
2023-05-11T01:24:50.736Z,10.837402
2023-05-11T01:25:59.410Z,10.92804
2023-05-11T01:27:09.100Z,10.93811
2023-05-11T01:28:18.841Z,10.917969
2023-05-11T01:29:28.583Z,10.897827
2023-05-11T01:30:38.273Z,10.867615
2023-05-11T01:31:47.978Z,10.756836
2023-05-11T01:32:57.662Z,10.776978
2023-05-11T01:34:07.358Z,10.776978
2023-05-11T01:35:17.044Z,10.746765
2023-05-11T01:36:26.736Z,10.666199
2023-05-11T01:37:36.439Z,10.746765
2023-05-11T01:38:45.193Z,10.736694
2023-05-11T01:39:54.894Z,10.716553
2023-05-11T01:41:03.631Z,10.756836
2023-05-11T01:42:12.324Z,10.80719
2023-05-11T01:43:22.067Z,10.706482
2023-05-11T01:44:31.738Z,10.746765
2023-05-11T01:45:40.537Z,10.68634
2023-05-11T01:46:51.163Z,10.787048
2023-05-11T01:47:59.953Z,10.756836
2023-05-11T01:49:08.605Z,10.787048
2023-05-11T01:50:18.548Z,10.635986
2023-05-11T01:51:28.011Z,10.67627
2023-05-11T01:52:37.744Z,10.756836
2023-05-11T01:53:46.436Z,10.756836
2023-05-11T01:54:56.122Z,10.625916
2023-05-11T01:56:05.806Z,10.736694
2023-05-11T01:57:15.537Z,10.857544
2023-05-11T01:58:25.253Z,10.736694
2023-05-11T01:59:34.968Z,10.787048
2023-05-11T02:00:43.710Z,10.817261
2023-05-11T02:01:53.456Z,10.837402
2023-05-11T02:03:03.277Z,10.80719
2023-05-11T02:04:12.891Z,10.756836
2023-05-11T02:05:22.643Z,10.716553
2023-05-11T02:06:31.382Z,10.736694
2023-05-11T02:07:41.084Z,10.716553
2023-05-11T02:08:50.777Z,10.746765
2023-05-11T02:09:58.477Z,10.716553
2023-05-11T02:11:08.212Z,10.756836
2023-05-11T02:12:17.931Z,10.787048
2023-05-11T02:13:26.639Z,10.80719
2023-05-11T02:14:36.373Z,10.716553
2023-05-11T02:15:46.068Z,10.605774
2023-05-11T02:16:55.861Z,10.635986
2023-05-11T02:18:04.556Z,10.666199
2023-05-11T02:19:14.244Z,10.635986
2023-05-11T02:20:23.973Z,10.716553
2023-05-11T02:21:33.724Z,10.605774
2023-05-11T02:22:43.422Z,10.68634
2023-05-11T02:23:53.113Z,10.736694
2023-05-11T02:25:01.796Z,10.746765
2023-05-11T02:26:11.536Z,10.716553
2023-05-11T02:27:21.265Z,10.68634
2023-05-11T02:28:30.955Z,10.716553
2023-05-11T02:29:40.676Z,10.706482
2023-05-11T02:30:50.425Z,10.736694
2023-05-11T02:32:00.146Z,10.736694
2023-05-11T02:33:09.901Z,10.635986
2023-05-11T02:34:19.537Z,10.565491
2023-05-11T02:35:29.292Z,10.605774
2023-05-11T02:36:39.025Z,10.595703
2023-05-11T02:37:48.749Z,10.635986
2023-05-11T02:38:58.481Z,10.716553
2023-05-11T02:40:06.231Z,10.585632
2023-05-11T02:41:15.930Z,10.595703
2023-05-11T02:42:25.672Z,10.565491
2023-05-11T02:43:35.369Z,10.525208
2023-05-11T02:44:45.121Z,10.535278
2023-05-11T02:45:54.799Z,10.605774
2023-05-11T02:47:04.547Z,10.55542
2023-05-11T02:48:14.204Z,10.494995
2023-05-11T02:49:23.964Z,10.595703
2023-05-11T02:50:33.655Z,10.444641
2023-05-11T02:51:43.368Z,10.595703
2023-05-11T02:52:53.040Z,10.585632
2023-05-11T02:54:02.781Z,10.565491
2023-05-11T02:55:12.468Z,10.585632
2023-05-11T02:56:20.141Z,10.605774
2023-05-11T02:57:30.823Z,10.55542
2023-05-11T02:58:39.603Z,10.525208
2023-05-11T02:59:49.336Z,10.565491
2023-05-11T03:00:59.045Z,10.625916
2023-05-11T03:02:08.763Z,10.635986
2023-05-11T03:03:18.517Z,10.585632
2023-05-11T03:04:28.148Z,10.505066
2023-05-11T03:05:37.839Z,10.414429
2023-05-11T03:06:47.528Z,10.484924
2023-05-11T03:07:57.399Z,10.494995
2023-05-11T03:09:09.316Z,10.414429
2023-05-11T03:10:17.070Z,10.444641
2023-05-11T03:11:26.596Z,10.505066
2023-05-11T03:12:36.349Z,10.4245
2023-05-11T03:13:46.082Z,10.343933
2023-05-11T03:14:55.827Z,10.354004
2023-05-11T03:16:05.482Z,10.354004
2023-05-11T03:17:15.316Z,10.374146
2023-05-11T03:18:25.059Z,10.30365
2023-05-11T03:19:34.798Z,10.233154
2023-05-11T03:20:42.464Z,10.202942
2023-05-11T03:21:52.201Z,10.172729
2023-05-11T03:23:01.920Z,10.172729
2023-05-11T03:24:10.644Z,10.202942
2023-05-11T03:25:20.371Z,10.30365
2023-05-11T03:26:30.151Z,10.202942
2023-05-11T03:27:39.849Z,10.223083
2023-05-11T03:28:49.542Z,10.313721
2023-05-11T03:29:58.236Z,10.122375
2023-05-11T03:31:08.058Z,10.05188
2023-05-11T03:32:17.852Z,10.092163
2023-05-11T03:33:26.411Z,10.05188
2023-05-11T03:34:36.145Z,10.05188
2023-05-11T03:35:45.854Z,10.152588
2023-05-11T03:36:54.554Z,10.223083
2023-05-11T03:38:04.254Z,10.132446
2023-05-11T03:39:13.946Z,10.021667
2023-05-11T03:40:23.719Z,10.05188
2023-05-11T03:41:33.423Z,10.132446
2023-05-11T03:42:43.141Z,10.05188
2023-05-11T03:43:52.864Z,10.011597
2023-05-11T03:45:01.629Z,9.941101
2023-05-11T03:46:11.379Z,10.011597
2023-05-11T03:47:21.016Z,10.072021
2023-05-11T03:48:30.696Z,10.132446
2023-05-11T03:49:40.462Z,10.072021
2023-05-11T03:50:50.156Z,9.971313
2023-05-11T03:51:58.871Z,9.971313
2023-05-11T03:53:08.579Z,10.072021
2023-05-11T03:54:18.355Z,10.152588
2023-05-11T03:55:28.059Z,10.021667
2023-05-11T03:56:36.751Z,10.011597
2023-05-11T03:57:46.452Z,10.102234
2023-05-11T03:58:57.205Z,10.152588
2023-05-11T04:00:05.910Z,10.122375
2023-05-11T04:01:14.705Z,10.152588
2023-05-11T04:02:24.783Z,10.041809
2023-05-11T04:03:34.501Z,10.05188
2023-05-11T04:04:44.136Z,10.041809
2023-05-11T04:05:53.831Z,10.092163
2023-05-11T04:07:03.528Z,10.162659
2023-05-11T04:08:13.251Z,10.092163
2023-05-11T04:09:22.945Z,10.102234
2023-05-11T04:10:31.625Z,10.122375
2023-05-11T04:11:41.305Z,10.132446
2023-05-11T04:12:50.053Z,10.102234
2023-05-11T04:13:59.729Z,10.102234
2023-05-11T04:15:09.409Z,10.011597
2023-05-11T04:16:19.164Z,10.072021
2023-05-11T04:17:28.918Z,10.102234
2023-05-11T04:18:38.636Z,10.072021
2023-05-11T04:19:48.331Z,10.041809
2023-05-11T04:20:58.028Z,10.102234
2023-05-11T04:22:05.742Z,10.092163
2023-05-11T04:23:15.434Z,10.092163
2023-05-11T04:24:24.129Z,10.041809
2023-05-11T04:25:32.854Z,9.971313
2023-05-11T04:26:42.564Z,9.920959
2023-05-11T04:27:51.239Z,9.920959
2023-05-11T04:29:01.060Z,10.041809
2023-05-11T04:30:10.726Z,10.05188
2023-05-11T04:31:19.487Z,9.981384
2023-05-11T04:32:29.182Z,9.910889
2023-05-11T04:33:38.844Z,9.890747
2023-05-11T04:34:48.554Z,9.890747
2023-05-11T04:35:58.298Z,9.790039
2023-05-11T04:37:07.029Z,9.920959
2023-05-11T04:38:15.736Z,9.991455
2023-05-11T04:39:25.374Z,10.041809
2023-05-11T04:40:35.100Z,10.021667
2023-05-11T04:41:43.842Z,9.981384
2023-05-11T04:42:53.527Z,9.981384
2023-05-11T04:44:02.263Z,10.011597
2023-05-11T04:45:12.014Z,10.011597
2023-05-11T04:46:20.861Z,9.971313
2023-05-11T04:47:29.506Z,9.981384
2023-05-11T04:48:38.190Z,10.132446
2023-05-11T04:49:47.803Z,10.202942
2023-05-11T04:50:57.578Z,9.981384
2023-05-11T04:52:07.244Z,10.021667
2023-05-11T04:53:15.922Z,9.971313
2023-05-11T04:54:25.613Z,9.910889
2023-05-11T04:55:35.384Z,10.041809
2023-05-11T04:56:45.077Z,9.941101
2023-05-11T04:57:54.806Z,9.971313
2023-05-11T04:59:05.476Z,10.041809
2023-05-11T05:00:14.445Z,10.041809
2023-05-11T05:01:24.114Z,9.971313
2023-05-11T05:02:33.800Z,9.991455
2023-05-11T05:03:43.542Z,9.941101
2023-05-11T05:04:53.217Z,9.890747
2023-05-11T05:06:02.889Z,10.041809
2023-05-11T05:07:12.584Z,10.253296
2023-05-11T05:08:22.279Z,10.30365
2023-05-11T05:09:32.008Z,10.283508
2023-05-11T05:10:42.694Z,10.192871
2023-05-11T05:11:52.390Z,10.072021
2023-05-11T05:13:02.115Z,9.991455
2023-05-11T05:14:11.844Z,10.172729
2023-05-11T05:15:21.548Z,10.253296
2023-05-11T05:16:32.511Z,10.132446
2023-05-11T05:17:39.944Z,9.991455
2023-05-11T05:18:49.646Z,9.941101
2023-05-11T05:19:59.290Z,9.971313
2023-05-11T05:21:07.963Z,10.05188
2023-05-11T05:22:17.645Z,10.011597
2023-05-11T05:23:27.396Z,10.05188
2023-05-11T05:24:37.090Z,10.132446
2023-05-11T05:25:46.790Z,10.132446
2023-05-11T05:26:56.496Z,10.011597
2023-05-11T05:28:06.233Z,9.971313
2023-05-11T05:29:15.910Z,9.840393
2023-05-11T05:30:25.592Z,9.941101
2023-05-11T05:31:35.316Z,10.011597
2023-05-11T05:32:45.099Z,10.041809
2023-05-11T05:33:54.781Z,10.102234
2023-05-11T05:35:04.451Z,10.122375
2023-05-11T05:36:13.130Z,10.132446
2023-05-11T05:37:22.846Z,10.05188
2023-05-11T05:38:32.558Z,9.981384
2023-05-11T05:39:41.255Z,10.021667
2023-05-11T05:40:50.912Z,10.122375
2023-05-11T05:42:00.619Z,10.152588
2023-05-11T05:43:10.312Z,10.253296
2023-05-11T05:44:20.005Z,10.384216
2023-05-11T05:45:29.702Z,10.162659
2023-05-11T05:46:39.457Z,10.011597
2023-05-11T05:47:49.278Z,10.05188
2023-05-11T05:48:58.856Z,10.021667
2023-05-11T05:50:08.560Z,9.971313
2023-05-11T05:51:18.303Z,10.122375
2023-05-11T05:52:28.001Z,10.192871
2023-05-11T05:53:37.728Z,10.011597
2023-05-11T05:54:47.478Z,10.041809
2023-05-11T05:55:57.201Z,10.011597
2023-05-11T05:57:05.896Z,9.951172
2023-05-11T05:58:16.575Z,10.021667
2023-05-11T05:59:26.293Z,9.991455
2023-05-11T06:00:36.027Z,10.011597
2023-05-11T06:01:45.735Z,9.920959
2023-05-11T06:02:55.527Z,9.910889
2023-05-11T06:04:05.256Z,9.840393
2023-05-11T06:05:14.882Z,9.941101
2023-05-11T06:06:23.570Z,9.941101
2023-05-11T06:07:33.248Z,9.870605
2023-05-11T06:08:42.941Z,9.860535
2023-05-11T06:09:52.665Z,9.80011
2023-05-11T06:11:02.360Z,9.830322
2023-05-11T06:12:12.047Z,9.739685
2023-05-11T06:13:21.870Z,9.689331
2023-05-11T06:14:31.594Z,9.689331
2023-05-11T06:15:43.141Z,9.759827
2023-05-11T06:16:50.008Z,9.638977
2023-05-11T06:17:59.723Z,9.769897
2023-05-11T06:19:09.456Z,9.769897
2023-05-11T06:20:19.345Z,9.860535
2023-05-11T06:21:27.848Z,9.890747
2023-05-11T06:22:36.529Z,9.991455
2023-05-11T06:23:46.256Z,10.021667
2023-05-11T06:24:54.979Z,10.011597
2023-05-11T06:26:04.679Z,9.991455
2023-05-11T06:27:13.348Z,9.971313
2023-05-11T06:28:22.020Z,9.971313
2023-05-11T06:29:31.744Z,9.910889
2023-05-11T06:30:41.460Z,9.910889
2023-05-11T06:31:51.194Z,9.991455
2023-05-11T06:33:00.991Z,9.971313
2023-05-11T06:34:08.708Z,9.981384
2023-05-11T06:35:18.422Z,9.860535
2023-05-11T06:36:28.095Z,9.860535
2023-05-11T06:37:37.817Z,9.840393
2023-05-11T06:38:47.547Z,9.971313
2023-05-11T06:39:57.268Z,10.152588
2023-05-11T06:41:06.943Z,10.021667
2023-05-11T06:42:16.634Z,10.132446
2023-05-11T06:43:26.452Z,9.840393
2023-05-11T06:44:36.176Z,9.890747
2023-05-11T06:45:45.887Z,10.021667
2023-05-11T06:46:55.558Z,9.870605
2023-05-11T06:48:05.347Z,9.870605
2023-05-11T06:49:15.028Z,9.971313
2023-05-11T06:50:27.402Z,9.991455
2023-05-11T06:51:34.414Z,9.790039
2023-05-11T06:52:45.132Z,9.759827
2023-05-11T06:53:54.830Z,9.790039
2023-05-11T06:55:04.557Z,9.860535
2023-05-11T06:56:14.231Z,9.759827
2023-05-11T06:57:24.023Z,9.649048
2023-05-11T06:58:32.728Z,9.608765
2023-05-11T06:59:42.442Z,9.759827
2023-05-11T07:00:52.124Z,9.689331
2023-05-11T07:02:01.854Z,9.67926
2023-05-11T07:03:11.550Z,9.769897
2023-05-11T07:04:21.273Z,9.759827
2023-05-11T07:05:30.001Z,9.790039
2023-05-11T07:06:39.767Z,9.80011
2023-05-11T07:07:48.437Z,9.920959
2023-05-11T07:08:58.139Z,10.011597
2023-05-11T07:10:07.835Z,10.102234
2023-05-11T07:11:16.575Z,10.092163
2023-05-11T07:12:26.270Z,10.011597
2023-05-11T07:13:34.974Z,10.172729
2023-05-11T07:14:44.676Z,10.152588
2023-05-11T07:15:55.910Z,10.192871
2023-05-11T07:17:04.112Z,10.192871
2023-05-11T07:18:13.853Z,10.263367
2023-05-11T07:19:23.525Z,10.192871
2023-05-11T07:20:32.282Z,10.202942
2023-05-11T07:21:41.978Z,10.192871
2023-05-11T07:22:50.675Z,10.202942
2023-05-11T07:24:00.367Z,10.162659
2023-05-11T07:25:10.084Z,10.192871
2023-05-11T07:26:18.722Z,10.263367
2023-05-11T07:27:28.412Z,10.162659
2023-05-11T07:28:38.097Z,10.172729
2023-05-11T07:29:47.831Z,10.233154
2023-05-11T07:30:57.535Z,10.333862
2023-05-11T07:32:07.248Z,10.535278
2023-05-11T07:33:16.959Z,10.525208
2023-05-11T07:34:26.705Z,10.565491
2023-05-11T07:35:35.432Z,10.666199
2023-05-11T07:36:45.116Z,10.716553
2023-05-11T07:37:54.805Z,10.817261
2023-05-11T07:39:03.530Z,10.80719
2023-05-11T07:40:13.234Z,10.666199
2023-05-11T07:41:22.932Z,10.80719
2023-05-11T07:42:32.634Z,10.716553
2023-05-11T07:43:42.355Z,10.756836
2023-05-11T07:44:52.053Z,10.535278
2023-05-11T07:46:01.769Z,10.595703
2023-05-11T07:47:10.458Z,10.595703
2023-05-11T07:48:20.215Z,10.68634
2023-05-11T07:49:39.786Z,10.666199
2023-05-11T07:50:40.687Z,10.635986
2023-05-11T07:51:50.263Z,10.736694
2023-05-11T07:52:59.974Z,10.625916
2023-05-11T07:54:09.701Z,10.736694
2023-05-11T07:55:20.760Z,10.605774
2023-05-11T07:56:30.098Z,10.635986
2023-05-11T07:57:39.841Z,10.67627
2023-05-11T07:58:49.568Z,10.68634
2023-05-11T07:59:58.276Z,10.535278
2023-05-11T08:01:07.983Z,10.464783
2023-05-11T08:02:17.745Z,10.525208
2023-05-11T08:03:27.514Z,10.595703
2023-05-11T08:04:37.173Z,10.67627
2023-05-11T08:05:46.934Z,10.706482
2023-05-11T08:06:56.608Z,10.68634
2023-05-11T08:08:06.299Z,10.787048
2023-05-11T08:09:15.992Z,10.666199
2023-05-11T08:10:25.680Z,10.958252
2023-05-11T08:11:34.396Z,11.119385
2023-05-11T08:12:44.142Z,11.048889
2023-05-11T08:13:53.829Z,11.119385
2023-05-11T08:15:03.525Z,10.998535
2023-05-11T08:16:12.238Z,10.968323
2023-05-11T08:17:21.912Z,11.079102
2023-05-11T08:18:30.590Z,11.270447
2023-05-11T08:19:41.238Z,11.149597
2023-05-11T08:20:51.014Z,11.038818
2023-05-11T08:22:00.705Z,10.988464
2023-05-11T08:23:10.412Z,10.917969
2023-05-11T08:24:20.082Z,10.837402
2023-05-11T08:25:29.860Z,10.837402
2023-05-11T08:26:39.544Z,10.857544
2023-05-11T08:27:49.270Z,10.958252
2023-05-11T08:28:58.963Z,10.736694
2023-05-11T08:30:10.817Z,10.867615
2023-05-11T08:31:18.382Z,11.069031
2023-05-11T08:32:28.175Z,11.038818
2023-05-11T08:33:39.046Z,10.917969
2023-05-11T08:34:49.059Z,10.746765
2023-05-11T08:35:58.746Z,10.746765
2023-05-11T08:37:08.422Z,10.68634
2023-05-11T08:38:18.117Z,10.625916
2023-05-11T08:39:43.540Z,10.746765
2023-05-11T08:40:38.527Z,10.716553
2023-05-11T08:41:48.201Z,10.67627
2023-05-11T08:42:56.878Z,10.787048
2023-05-11T08:44:06.556Z,10.756836
2023-05-11T08:45:16.479Z,10.897827
2023-05-11T08:46:26.010Z,10.917969
2023-05-11T08:47:35.760Z,10.958252
2023-05-11T08:48:44.360Z,11.149597
2023-05-11T08:49:54.115Z,11.230164
2023-05-11T08:51:04.832Z,11.361084
2023-05-11T08:52:13.498Z,11.411438
2023-05-11T08:53:23.258Z,11.572571
2023-05-11T08:54:33.010Z,11.653137
2023-05-11T08:55:42.688Z,11.723633
2023-05-11T08:56:52.427Z,11.733704
2023-05-11T08:58:02.124Z,11.753845
2023-05-11T08:59:12.861Z,11.572571
2023-05-11T09:00:22.570Z,11.68335
2023-05-11T09:01:32.292Z,11.68335
2023-05-11T09:02:42.056Z,11.653137
2023-05-11T09:03:51.794Z,11.512146
2023-05-11T09:05:01.501Z,11.320801
2023-05-11T09:06:11.178Z,11.069031
2023-05-11T09:07:20.839Z,11.079102
2023-05-11T09:08:30.503Z,11.038818
2023-05-11T09:09:40.208Z,11.048889
2023-05-11T09:10:49.881Z,11.270447
2023-05-11T09:11:59.589Z,11.481934
2023-05-11T09:13:09.295Z,11.512146
2023-05-11T09:14:19.150Z,11.522217
2023-05-11T09:15:28.671Z,11.663208
2023-05-11T09:16:38.384Z,11.632996
2023-05-11T09:17:48.126Z,11.723633
2023-05-11T09:18:57.821Z,11.773987
2023-05-11T09:20:06.567Z,11.773987
2023-05-11T09:21:16.219Z,11.723633
2023-05-11T09:22:24.923Z,11.451721
2023-05-11T09:23:35.669Z,11.572571
2023-05-11T09:24:45.360Z,11.68335
2023-05-11T09:25:55.091Z,11.411438
2023-05-11T09:27:04.805Z,11.43158
2023-05-11T09:28:15.529Z,11.481934
2023-05-11T09:29:30.333Z,11.330872
2023-05-11T09:30:33.858Z,11.300659
2023-05-11T09:31:43.676Z,11.592712
2023-05-11T09:32:53.326Z,11.653137
2023-05-11T09:34:02.900Z,11.260376
2023-05-11T09:35:12.608Z,11.139526
2023-05-11T09:36:22.386Z,11.401367
2023-05-11T09:37:32.033Z,11.361084
2023-05-11T09:38:41.713Z,11.481934
2023-05-11T09:41:02.124Z,11.361084
2023-05-11T09:42:11.812Z,11.330872
2023-05-11T09:43:21.529Z,11.230164
2023-05-11T09:44:31.245Z,11.481934
2023-05-11T09:45:40.971Z,11.552429
2023-05-11T09:46:50.704Z,11.572571
2023-05-11T09:48:00.423Z,11.622925
2023-05-11T09:49:10.066Z,11.753845
2023-05-11T09:51:29.560Z,11.69342
2023-05-11T09:52:39.240Z,11.904907
2023-05-11T09:53:48.925Z,11.844482
2023-05-11T09:54:57.664Z,11.733704
2023-05-11T09:56:06.352Z,11.471863
2023-05-11T09:57:16.030Z,11.371155
2023-05-11T09:58:25.763Z,11.401367
2023-05-11T09:59:34.494Z,11.481934
2023-05-11T10:00:44.199Z,11.602783
2023-05-11T10:01:53.929Z,11.834412
2023-05-11T10:03:03.664Z,11.542358
2023-05-11T10:04:22.663Z,11.68335
2023-05-11T10:05:24.009Z,11.512146
2023-05-11T10:06:33.843Z,11.592712
2023-05-11T10:07:43.436Z,11.522217
2023-05-11T10:08:53.162Z,11.371155
2023-05-11T10:10:02.872Z,11.18988
2023-05-11T10:11:12.564Z,11.270447
2023-05-11T10:12:22.252Z,11.451721
2023-05-11T10:13:31.977Z,11.632996
2023-05-11T10:14:41.680Z,11.502075
2023-05-11T10:15:51.394Z,11.592712
2023-05-11T10:17:01.068Z,11.68335
2023-05-11T10:18:10.861Z,11.572571
2023-05-11T10:19:21.503Z,11.542358
2023-05-11T10:20:31.186Z,11.773987
2023-05-11T10:21:40.899Z,11.844482
2023-05-11T10:22:50.601Z,11.93512
2023-05-11T10:23:59.274Z,12.055969
2023-05-11T10:25:08.977Z,12.126465
2023-05-11T10:26:18.666Z,12.247314
2023-05-11T10:27:27.394Z,12.126465
2023-05-11T10:28:37.078Z,11.874695
2023-05-11T10:29:46.776Z,11.773987
2023-05-11T10:30:55.483Z,11.703491
2023-05-11T10:32:05.274Z,11.572571
2023-05-11T10:33:14.922Z,11.733704
2023-05-11T10:34:23.633Z,11.844482
2023-05-11T10:35:33.330Z,11.784058
2023-05-11T10:36:43.095Z,11.804199
2023-05-11T10:37:52.814Z,11.602783
2023-05-11T10:39:02.484Z,11.401367
2023-05-11T10:40:11.159Z,11.361084
2023-05-11T10:41:20.900Z,11.43158
2023-05-11T10:42:30.585Z,11.552429
2023-05-11T10:43:40.292Z,11.69342
2023-05-11T10:44:49.978Z,11.844482
2023-05-11T10:45:59.771Z,11.784058
2023-05-11T10:47:09.444Z,11.522217
2023-05-11T10:48:19.141Z,11.502075
2023-05-11T10:49:27.810Z,11.552429
2023-05-11T10:50:37.542Z,11.723633
2023-05-11T10:51:47.229Z,11.723633
2023-05-11T10:52:56.934Z,11.663208
2023-05-11T10:54:06.597Z,11.44165
2023-05-11T10:55:16.528Z,11.663208
2023-05-11T10:56:26.018Z,11.663208
2023-05-11T10:57:35.757Z,11.703491
2023-05-11T10:58:45.469Z,11.632996
2023-05-11T10:59:55.230Z,11.733704
2023-05-11T11:01:04.984Z,11.914978
2023-05-11T11:02:14.608Z,11.784058
2023-05-11T11:03:24.300Z,11.753845
2023-05-11T11:04:34.051Z,11.81427
2023-05-11T11:05:42.799Z,11.985474
2023-05-11T11:06:52.427Z,12.086182
2023-05-11T11:08:02.150Z,12.277527
2023-05-11T11:09:11.887Z,12.176819
2023-05-11T11:10:21.592Z,12.267456
2023-05-11T11:11:30.307Z,12.388306
2023-05-11T11:12:39.980Z,12.096252
2023-05-11T11:13:49.797Z,12.207031
2023-05-11T11:14:59.486Z,12.176819
2023-05-11T11:16:09.132Z,12.086182
2023-05-11T11:17:18.863Z,12.086182
2023-05-11T11:18:28.573Z,12.267456
2023-05-11T11:19:38.439Z,12.529297
2023-05-11T11:20:47.124Z,12.489014
2023-05-11T11:21:56.856Z,12.7005
2023-05-11T11:23:06.607Z,12.781067
2023-05-11T11:24:16.255Z,12.750854
2023-05-11T11:25:25.956Z,12.398376
2023-05-11T11:26:35.653Z,12.368164
2023-05-11T11:27:45.389Z,12.358093
2023-05-11T11:28:54.094Z,12.176819
2023-05-11T11:30:03.790Z,12.267456
2023-05-11T11:31:13.477Z,12.116394
2023-05-11T11:32:22.196Z,11.94519
2023-05-11T11:33:31.875Z,11.864624
2023-05-11T11:34:41.584Z,11.914978
2023-05-11T11:35:51.286Z,11.995544
2023-05-11T11:37:01.027Z,11.874695
2023-05-11T11:38:09.714Z,11.874695
2023-05-11T11:39:19.359Z,11.93512
2023-05-11T11:40:32.099Z,11.914978
2023-05-11T11:41:38.690Z,11.904907
2023-05-11T11:42:48.386Z,11.904907
2023-05-11T11:43:58.104Z,11.804199
2023-05-11T11:45:07.799Z,11.904907
2023-05-11T11:46:17.545Z,11.995544
2023-05-11T11:47:26.401Z,11.965332
2023-05-11T11:48:36.044Z,12.116394
2023-05-11T11:49:44.631Z,12.237244
2023-05-11T11:50:54.335Z,12.166748
2023-05-11T11:52:04.021Z,12.287598
2023-05-11T11:53:13.750Z,12.116394
2023-05-11T11:54:23.404Z,12.096252
2023-05-11T11:55:33.160Z,12.086182
2023-05-11T11:56:41.867Z,12.025757
2023-05-11T11:57:51.556Z,12.015686
2023-05-11T11:59:01.317Z,12.096252
2023-05-11T12:00:11.017Z,12.287598
2023-05-11T12:01:20.648Z,12.277527
2023-05-11T12:02:30.390Z,12.207031
2023-05-11T12:03:40.079Z,12.287598
2023-05-11T12:04:49.759Z,12.489014
2023-05-11T12:05:58.417Z,12.368164
2023-05-11T12:07:08.094Z,12.31781
2023-05-11T12:08:17.790Z,12.31781
2023-05-11T12:09:27.526Z,12.277527
2023-05-11T12:10:37.216Z,12.237244
2023-05-11T12:11:46.914Z,12.217102
2023-05-11T12:12:56.127Z,12.025757
2023-05-11T12:14:05.300Z,11.914978
2023-05-11T12:15:15.011Z,11.985474
2023-05-11T12:16:24.732Z,11.93512
2023-05-11T12:17:33.404Z,11.965332
2023-05-11T12:18:43.124Z,11.995544
2023-05-11T12:19:52.839Z,12.096252
2023-05-11T12:21:02.956Z,12.267456
2023-05-11T12:22:12.651Z,12.247314
2023-05-11T12:23:22.403Z,12.207031
2023-05-11T12:24:32.104Z,12.126465
2023-05-11T12:25:41.798Z,12.207031
2023-05-11T12:26:50.481Z,12.217102
2023-05-11T12:28:00.264Z,12.055969
2023-05-11T12:29:10.983Z,11.93512
2023-05-11T12:30:20.672Z,11.93512
2023-05-11T12:31:30.346Z,11.914978
2023-05-11T12:32:40.088Z,11.985474
2023-05-11T12:33:49.784Z,12.126465
2023-05-11T12:34:59.495Z,12.015686
2023-05-11T12:36:09.204Z,12.096252
2023-05-11T12:37:18.913Z,12.307739
2023-05-11T12:38:28.744Z,12.247314
2023-05-11T12:39:38.417Z,12.217102
2023-05-11T12:40:48.098Z,12.086182
2023-05-11T12:41:57.818Z,11.995544
2023-05-11T12:43:06.524Z,11.93512
2023-05-11T12:44:16.228Z,11.93512
2023-05-11T12:45:25.922Z,12.035828
2023-05-11T12:46:35.650Z,12.19696
2023-05-11T12:47:45.404Z,12.348022
2023-05-11T12:48:54.079Z,12.368164
2023-05-11T12:50:03.788Z,12.489014
2023-05-11T12:51:13.462Z,12.489014
2023-05-11T12:52:23.219Z,12.388306
2023-05-11T12:53:33.000Z,12.277527
2023-05-11T12:54:42.665Z,12.247314
2023-05-11T12:55:52.344Z,12.035828
2023-05-11T12:57:02.089Z,12.247314
2023-05-11T12:58:10.761Z,12.277527
2023-05-11T12:59:21.431Z,12.348022
2023-05-11T13:00:31.134Z,12.19696
2023-05-11T13:01:40.929Z,12.267456
2023-05-11T13:02:50.760Z,12.176819
2023-05-11T13:04:00.548Z,11.985474
2023-05-11T13:05:09.995Z,11.995544
2023-05-11T13:06:19.750Z,12.055969
2023-05-11T13:07:28.439Z,12.06604
2023-05-11T13:08:38.214Z,12.166748
2023-05-11T13:09:47.856Z,12.116394
2023-05-11T13:10:57.618Z,12.015686
2023-05-11T13:12:07.320Z,11.914978
2023-05-11T13:13:17.012Z,11.753845
2023-05-11T13:14:26.706Z,11.622925
2023-05-11T13:15:36.446Z,11.481934
2023-05-11T13:16:46.136Z,11.69342
2023-05-11T13:17:55.842Z,11.874695
2023-05-11T13:19:05.571Z,11.965332
2023-05-11T13:20:15.296Z,11.844482
2023-05-11T13:21:25.008Z,11.773987